Xunlong5 — BYGW — position and weather

sailwx.info

Track history (hours):
 
Tides and Currents Weather Stations Pressure Air Temp Water Temp Dewpoint Dewpoint Depression Visibility Wind Speed Wind Dir Waves Ship Positions

Xunlong5

Last reported at 2014-Nov-01 12:24 UTC. Time now 2014-Nov-01 12:46 UTC.
Position N 22°10' E 113°35'.

Length 34 m; draft 1.4 m.

Type: High speed craft. MMSI: 413471870.

Date/timePositionNaut miles runAvg speedWind from/ knotsBaromVisibWave heightAir tempDewpointWater temp
2014-Nov-01 12:24N 22°10' E 113°35'1518.0
2014-Nov-01 11:33N 22°23' E 113°43'10 9.6
2014-Nov-01 10:32N 22°32' E 113°46'2424.0
2014-Nov-01 09:33N 22°12' E 113°34'1514.6
2014-Nov-01 08:33N 22°24' E 113°43'7 6.8
2014-Nov-01 07:31N 22°30' E 113°46'23 2.3
2014-Oct-31 21:29N 22°10' E 113°35'0 0.0
2014-Oct-31 20:29N 22°10' E 113°35'0 0.0
2014-Oct-31 19:29N 22°10' E 113°35'0 0.0
2014-Oct-31 18:23N 22°10' E 113°35'0 0.0
2014-Oct-31 17:29N 22°10' E 113°35'0 0.0
2014-Oct-31 16:29N 22°10' E 113°35'0 0.0
2014-Oct-31 15:29N 22°10' E 113°35'0 0.0
2014-Oct-31 14:29N 22°10' E 113°35'0 0.0
2014-Oct-31 13:23N 22°10' E 113°35'0 0.0
2014-Oct-31 12:29N 22°10' E 113°35'1717.8
2014-Oct-31 11:33N 22°25' E 113°43'6 5.4
2014-Oct-31 10:29N 22°30' E 113°45'2122.5
2014-Oct-31 09:33N 22°12' E 113°34'1716.9
2014-Oct-31 08:33N 22°26' E 113°44'6 5.5
2014-Oct-31 07:32N 22°31' E 113°46'2222.7
2014-Oct-31 06:33N 22°12' E 113°34'1414.1
2014-Oct-31 05:33N 22°24' E 113°42'8 7.8
2014-Oct-31 04:32N 22°31' E 113°46'2323.8
2014-Oct-31 03:33N 22°10' E 113°35'1616.1
2014-Oct-31 02:33N 22°24' E 113°43'10 8.8
2014-Oct-31 01:23N 22°33' E 113°47'2226.2
2014-Oct-31 00:33N 22°13' E 113°39'5 4.8
2014-Oct-30 23:31N 22°10' E 113°35'0 0.0
2014-Oct-30 22:31N 22°10' E 113°35'0 0.0
2014-Oct-30 21:31N 22°10' E 113°35'0 0.0
2014-Oct-30 20:31N 22°10' E 113°35'0 0.0
2014-Oct-30 19:31N 22°10' E 113°35'0 0.0
2014-Oct-30 18:31N 22°10' E 113°35'0 0.0
2014-Oct-30 17:31N 22°10' E 113°35'0 0.0
2014-Oct-30 16:30N 22°10' E 113°35'0 0.0
2014-Oct-30 15:25N 22°10' E 113°35'0 0.0
2014-Oct-30 14:19N 22°10' E 113°35'0 0.0
2014-Oct-30 13:25N 22°10' E 113°35'0 0.0
2014-Oct-30 12:33N 22°10' E 113°35'1818.1
2014-Oct-30 11:33N 22°26' E 113°44'5 5.2
2014-Oct-30 10:33N 22°30' E 113°46'2222.1
2014-Oct-30 09:33N 22°12' E 113°34'1515.0
2014-Oct-30 08:34N 22°24' E 113°43'4 3.8
2014-Oct-30 07:28N 22°28' E 113°44'1920.4
2014-Oct-30 06:33N 22°12' E 113°34'1717.3
2014-Oct-30 05:33N 22°26' E 113°43'1 1.2
2014-Oct-30 04:26N 22°28' E 113°44'2022.7
2014-Oct-30 03:33N 22°10' E 113°35'1615.9
2014-Oct-30 02:34N 22°24' E 113°43'10 9.1
2014-Oct-30 01:25N 22°33' E 113°47'2226.1
2014-Oct-30 00:33N 22°13' E 113°39'5 4.0
2014-Oct-29 23:24N 22°10' E 113°35'0 0.0
2014-Oct-29 22:24N 22°10' E 113°35'0 0.0
2014-Oct-29 21:30N 22°10' E 113°35'0 0.0
2014-Oct-29 20:18N 22°10' E 113°35'0 0.0
2014-Oct-29 19:24N 22°10' E 113°35'0 0.0
2014-Oct-29 18:30N 22°10' E 113°35'0 0.0
2014-Oct-29 17:30N 22°10' E 113°35'0 0.0
2014-Oct-29 16:30N 22°10' E 113°35'0 0.0
2014-Oct-29 15:24N 22°10' E 113°35'0 0.0
2014-Oct-29 14:30N 22°10' E 113°35'0 0.0
2014-Oct-29 13:30N 22°10' E 113°35'0 0.0
2014-Oct-29 12:29N 22°10' E 113°35'1415.1
2014-Oct-29 11:33N 22°22' E 113°42'1010.0
2014-Oct-29 10:33N 22°31' E 113°46'2323.0
2014-Oct-29 09:33N 22°12' E 113°34'1515.2
2014-Oct-29 08:34N 22°24' E 113°43'6 5.8
2014-Oct-29 07:32N 22°29' E 113°46'2121.2
2014-Oct-29 06:33N 22°12' E 113°34'1514.5
2014-Oct-29 05:33N 22°24' E 113°42'7 6.6
2014-Oct-29 04:32N 22°30' E 113°46'2222.9
2014-Oct-29 03:33N 22°10' E 113°35'1615.8
2014-Oct-29 02:33N 22°24' E 113°43'1210.5
2014-Oct-29 01:25N 22°35' E 113°48'2326.8
2014-Oct-29 00:34N 22°14' E 113°39'5 4.1
2014-Oct-28 23:14N 22°10' E 113°35'0 0.0
2014-Oct-28 22:14N 22°10' E 113°35'0 0.0
2014-Oct-28 21:26N 22°10' E 113°35'0 0.0
2014-Oct-28 20:31N 22°10' E 113°35'0 0.0
2014-Oct-28 19:32N 22°10' E 113°35'0 0.0
2014-Oct-28 18:32N 22°10' E 113°35'0 0.0
2014-Oct-28 17:32N 22°10' E 113°35'0 0.0
2014-Oct-28 16:32N 22°10' E 113°35'0 0.0
2014-Oct-28 15:32N 22°10' E 113°35'0 0.0
2014-Oct-28 14:31N 22°10' E 113°35'0 0.0
2014-Oct-28 13:32N 22°10' E 113°35'0 0.0
2014-Oct-28 12:26N 22°10' E 113°35'1719.4
2014-Oct-28 11:33N 22°21' E 113°48'1612.1
2014-Oct-28 10:14N 22°19' E 114°06'3 3.8
2014-Oct-28 09:31N 22°21' E 114°03'1010.6
2014-Oct-28 08:33N 22°25' E 113°53'2323.0
2014-Oct-28 07:33N 22°10' E 113°35'1515.4
2014-Oct-28 06:33N 22°21' E 113°47'1110.8
2014-Oct-28 05:33N 22°29' E 113°55'0 0.1
2014-Oct-28 04:33N 22°29' E 113°55'1817.4
2014-Oct-28 03:33N 22°17' E 114°09'1616.7
2014-Oct-28 02:33N 22°26' E 113°54'2 2.2
2014-Oct-28 01:29N 22°29' E 113°54'0 0.1
2014-Oct-28 00:33N 22°29' E 113°55'0 0.0
2014-Oct-27 23:33N 22°29' E 113°55'0 0.0
2014-Oct-27 22:33N 22°29' E 113°55'0 0.0
2014-Oct-27 21:33N 22°29' E 113°55'0 0.0
2014-Oct-27 20:33N 22°29' E 113°55'0 0.0
2014-Oct-27 19:33N 22°29' E 113°55'0 0.0
2014-Oct-27 18:33N 22°29' E 113°55'0 0.0
2014-Oct-27 17:33N 22°29' E 113°55'0 0.0
2014-Oct-27 16:33N 22°29' E 113°55'0 0.1
2014-Oct-27 15:33N 22°29' E 113°54'0 0.1
2014-Oct-27 14:33N 22°29' E 113°55'0 0.0
2014-Oct-27 13:33N 22°29' E 113°55'0 0.2
2014-Oct-27 11:34N 22°29' E 113°55'9 8.0
2014-Oct-27 10:28N 22°21' E 113°60'3 3.2
2014-Oct-27 09:31N 22°21' E 114°03'1111.2
2014-Oct-27 08:33N 22°24' E 113°52'2221.4
2014-Oct-27 07:33N 22°10' E 113°35'2221.8
2014-Oct-27 06:34N 22°24' E 113°52'1412.5
2014-Oct-27 05:27N 22°19' E 114°07'8 8.5
2014-Oct-27 04:33N 22°21' E 113°58'9 8.6
2014-Oct-27 03:33N 22°29' E 113°55'2424.4
2014-Oct-27 02:33N 22°11' E 113°37'7 6.6
2014-Oct-27 01:33N 22°14' E 113°43'1818.1
2014-Oct-27 00:34N 22°29' E 113°55'0 0.1
2014-Oct-26 23:20N 22°29' E 113°55'0 0.0
2014-Oct-26 22:32N 22°29' E 113°55'0 0.0
2014-Oct-26 21:32N 22°29' E 113°55'0 0.0
2014-Oct-26 20:32N 22°29' E 113°55'0 0.0
2014-Oct-26 19:32N 22°29' E 113°55'0 0.0
2014-Oct-26 18:26N 22°29' E 113°55'0 0.0
2014-Oct-26 17:32N 22°29' E 113°55'0 0.0
2014-Oct-26 16:31N 22°29' E 113°55'0 0.0
2014-Oct-26 15:32N 22°29' E 113°55'0 0.0
2014-Oct-26 14:32N 22°29' E 113°55'0 0.1
2014-Oct-26 13:33N 22°29' E 113°55'1817.2
2014-Oct-26 12:32N 22°17' E 114°09'1414.1
2014-Oct-26 11:32N 22°22' E 113°55'11 8.5
2014-Oct-26 10:16N 22°19' E 114°06'1 1.2
2014-Oct-26 09:33N 22°19' E 114°07'1414.0
2014-Oct-26 08:33N 22°27' E 113°54'2524.6
2014-Oct-26 07:33N 22°10' E 113°35'1817.8
2014-Oct-26 06:33N 22°21' E 113°50'5 5.2
2014-Oct-26 05:34N 22°25' E 113°53'2322.9
2014-Oct-26 04:33N 22°10' E 113°35'2120.5
2014-Oct-26 03:33N 22°23' E 113°52'1411.4
2014-Oct-26 02:19N 22°19' E 114°06'1111.4
2014-Oct-26 01:20N 22°23' E 113°55'6 7.3
2014-Oct-26 00:30N 22°29' E 113°55'0 0.0
2014-Oct-25 23:30N 22°29' E 113°55'0 0.0
2014-Oct-25 22:30N 22°29' E 113°55'0 0.0
2014-Oct-25 21:12N 22°29' E 113°55'0 0.1
2014-Oct-25 20:30N 22°29' E 113°54'0 0.0
2014-Oct-25 19:18N 22°29' E 113°55'0 0.0
2014-Oct-25 18:30N 22°29' E 113°55'0 0.0
2014-Oct-25 17:30N 22°29' E 113°55'0 0.1
2014-Oct-25 16:30N 22°29' E 113°54'0 0.0
2014-Oct-25 15:30N 22°29' E 113°54'0 0.1
2014-Oct-25 14:30N 22°29' E 113°55'0 0.1
2014-Oct-25 13:30N 22°29' E 113°55'1818.8
2014-Oct-25 12:33N 22°17' E 114°09'1413.9
2014-Oct-25 11:32N 22°22' E 113°55'11 8.0
2014-Oct-25 10:13N 22°19' E 114°06'1111.1
2014-Oct-25 09:12N 22°23' E 113°54'3 5.0
2014-Oct-25 08:31N 22°22' E 113°51'1919.9
2014-Oct-25 07:33N 22°10' E 113°35'2424.4
2014-Oct-25 06:33N 22°26' E 113°54'1414.3
2014-Oct-25 05:33N 22°15' E 113°45'3 3.0
2014-Oct-25 04:33N 22°13' E 113°42'1919.4
2014-Oct-25 03:33N 22°29' E 113°55'1717.4
2014-Oct-25 02:33N 22°17' E 114°09'1615.6
2014-Oct-25 01:33N 22°24' E 113°54'5 4.5
2014-Oct-25 00:31N 22°29' E 113°55'0 0.1
2014-Oct-24 23:31N 22°29' E 113°54'0 0.1
2014-Oct-24 22:31N 22°29' E 113°55'0 0.0
2014-Oct-24 21:32N 22°29' E 113°55'0 0.0
2014-Oct-24 20:31N 22°29' E 113°55'0 0.0
2014-Oct-24 19:31N 22°29' E 113°55'0 0.0
2014-Oct-24 18:31N 22°29' E 113°55'0 0.0
2014-Oct-24 17:25N 22°29' E 113°55'0 0.0
2014-Oct-24 16:31N 22°29' E 113°55'0 0.0
2014-Oct-24 15:31N 22°29' E 113°55'0 0.0
2014-Oct-24 14:31N 22°29' E 113°55'0 0.0
2014-Oct-24 13:33N 22°29' E 113°55'0 0.0
2014-Oct-24 11:33N 22°29' E 113°55'1410.3
2014-Oct-24 10:11N 22°19' E 114°06'0 0.0
2014-Oct-24 09:34N 22°19' E 114°06'1413.9
2014-Oct-24 08:33N 22°29' E 113°55'1717.1
2014-Oct-24 07:33N 22°18' E 114°09'1515.2
2014-Oct-24 06:33N 22°24' E 113°54'5 4.9
2014-Oct-24 05:33N 22°29' E 113°55'0 0.1
2014-Oct-24 04:33N 22°29' E 113°55'1716.7
2014-Oct-24 03:33N 22°18' E 114°08'1413.7
2014-Oct-24 02:33N 22°23' E 113°54'5 4.8
2014-Oct-24 01:27N 22°21' E 114°00'8 8.4
2014-Oct-24 00:33N 22°19' E 114°08'1614.9
2014-Oct-23 23:30N 22°29' E 113°55'0 0.0
2014-Oct-23 22:30N 22°29' E 113°55'0 0.0
2014-Oct-23 21:30N 22°29' E 113°55'0 0.0
2014-Oct-23 20:30N 22°29' E 113°55'0 0.0
2014-Oct-23 19:30N 22°29' E 113°55'0 0.0
2014-Oct-23 18:30N 22°29' E 113°55'0 0.0
2014-Oct-23 17:30N 22°29' E 113°55'0 0.0
2014-Oct-23 16:30N 22°29' E 113°55'0 0.0
2014-Oct-23 15:30N 22°29' E 113°55'0 0.0
2014-Oct-23 14:30N 22°29' E 113°55'7 5.2
2014-Oct-23 13:14N 22°22' E 113°55'7 9.8
2014-Oct-23 12:33N 22°29' E 113°55'1817.6
2014-Oct-23 11:33N 22°15' E 113°43'5 5.4
2014-Oct-23 10:34N 22°12' E 113°38'2322.7
2014-Oct-23 09:33N 22°29' E 113°55'1918.7
2014-Oct-23 08:34N 22°14' E 113°43'7 6.8
2014-Oct-23 07:34N 22°11' E 113°36'2525.0
2014-Oct-23 06:34N 22°29' E 113°55'3 2.9
2014-Oct-23 05:34N 22°26' E 113°54'2423.8
2014-Oct-23 04:34N 22°10' E 113°35'1717.2
2014-Oct-23 03:34N 22°21' E 113°49'9 8.3
2014-Oct-23 02:26N 22°29' E 113°55'0 0.0
2014-Oct-23 01:32N 22°29' E 113°55'0 0.0
2014-Oct-23 00:29N 22°29' E 113°55'0 0.0
2014-Oct-22 23:29N 22°29' E 113°55'0 0.0
2014-Oct-22 22:29N 22°29' E 113°55'0 0.0
2014-Oct-22 21:29N 22°29' E 113°55'0 0.0
2014-Oct-22 20:29N 22°29' E 113°55'0 0.0
2014-Oct-22 19:29N 22°29' E 113°55'0 0.0
2014-Oct-22 18:23N 22°29' E 113°55'0 0.0
2014-Oct-22 17:29N 22°29' E 113°55'0 0.0
2014-Oct-22 16:29N 22°29' E 113°55'0 0.0
2014-Oct-22 15:29N 22°29' E 113°55'0 0.0
2014-Oct-22 14:29N 22°29' E 113°55'0 0.1
2014-Oct-22 13:34N 22°29' E 113°55'  
Track history (hours):
 
Tides and Currents Weather Stations Pressure Air Temp Water Temp Dewpoint Dewpoint Depression Visibility Wind Speed Wind Dir Waves Ship Positions

Xunlong5

Last reported at 2014-Nov-01 12:24 UTC. Time now 2014-Nov-01 12:46 UTC.
Position N 22°10' E 113°35'.

Length 34 m; draft 1.4 m.

Type: High speed craft. MMSI: 413471870.

Date/timePositionNaut miles runAvg speedWind from/ knotsBaromVisibWave heightAir tempDewpointWater temp
2014-Nov-01 12:24N 22°10' E 113°35'1518.0
2014-Nov-01 11:33N 22°23' E 113°43'10 9.6
2014-Nov-01 10:32N 22°32' E 113°46'2424.0
2014-Nov-01 09:33N 22°12' E 113°34'1514.6
2014-Nov-01 08:33N 22°24' E 113°43'7 6.8
2014-Nov-01 07:31N 22°30' E 113°46'23 2.3
2014-Oct-31 21:29N 22°10' E 113°35'0 0.0
2014-Oct-31 20:29N 22°10' E 113°35'0 0.0
2014-Oct-31 19:29N 22°10' E 113°35'0 0.0
2014-Oct-31 18:23N 22°10' E 113°35'0 0.0
2014-Oct-31 17:29N 22°10' E 113°35'0 0.0
2014-Oct-31 16:29N 22°10' E 113°35'0 0.0
2014-Oct-31 15:29N 22°10' E 113°35'0 0.0
2014-Oct-31 14:29N 22°10' E 113°35'0 0.0
2014-Oct-31 13:23N 22°10' E 113°35'0 0.0
2014-Oct-31 12:29N 22°10' E 113°35'1717.8
2014-Oct-31 11:33N 22°25' E 113°43'6 5.4
2014-Oct-31 10:29N 22°30' E 113°45'2122.5
2014-Oct-31 09:33N 22°12' E 113°34'1716.9
2014-Oct-31 08:33N 22°26' E 113°44'6 5.5
2014-Oct-31 07:32N 22°31' E 113°46'2222.7
2014-Oct-31 06:33N 22°12' E 113°34'1414.1
2014-Oct-31 05:33N 22°24' E 113°42'8 7.8
2014-Oct-31 04:32N 22°31' E 113°46'2323.8
2014-Oct-31 03:33N 22°10' E 113°35'1616.1
2014-Oct-31 02:33N 22°24' E 113°43'10 8.8
2014-Oct-31 01:23N 22°33' E 113°47'2226.2
2014-Oct-31 00:33N 22°13' E 113°39'5 4.8
2014-Oct-30 23:31N 22°10' E 113°35'0 0.0
2014-Oct-30 22:31N 22°10' E 113°35'0 0.0
2014-Oct-30 21:31N 22°10' E 113°35'0 0.0
2014-Oct-30 20:31N 22°10' E 113°35'0 0.0
2014-Oct-30 19:31N 22°10' E 113°35'0 0.0
2014-Oct-30 18:31N 22°10' E 113°35'0 0.0
2014-Oct-30 17:31N 22°10' E 113°35'0 0.0
2014-Oct-30 16:30N 22°10' E 113°35'0 0.0
2014-Oct-30 15:25N 22°10' E 113°35'0 0.0
2014-Oct-30 14:19N 22°10' E 113°35'0 0.0
2014-Oct-30 13:25N 22°10' E 113°35'0 0.0
2014-Oct-30 12:33N 22°10' E 113°35'1818.1
2014-Oct-30 11:33N 22°26' E 113°44'5 5.2
2014-Oct-30 10:33N 22°30' E 113°46'2222.1
2014-Oct-30 09:33N 22°12' E 113°34'1515.0
2014-Oct-30 08:34N 22°24' E 113°43'4 3.8
2014-Oct-30 07:28N 22°28' E 113°44'1920.4
2014-Oct-30 06:33N 22°12' E 113°34'1717.3
2014-Oct-30 05:33N 22°26' E 113°43'1 1.2
2014-Oct-30 04:26N 22°28' E 113°44'2022.7
2014-Oct-30 03:33N 22°10' E 113°35'1615.9
2014-Oct-30 02:34N 22°24' E 113°43'10 9.1
2014-Oct-30 01:25N 22°33' E 113°47'2226.1
2014-Oct-30 00:33N 22°13' E 113°39'5 4.0
2014-Oct-29 23:24N 22°10' E 113°35'0 0.0
2014-Oct-29 22:24N 22°10' E 113°35'0 0.0
2014-Oct-29 21:30N 22°10' E 113°35'0 0.0
2014-Oct-29 20:18N 22°10' E 113°35'0 0.0
2014-Oct-29 19:24N 22°10' E 113°35'0 0.0
2014-Oct-29 18:30N 22°10' E 113°35'0 0.0
2014-Oct-29 17:30N 22°10' E 113°35'0 0.0
2014-Oct-29 16:30N 22°10' E 113°35'0 0.0
2014-Oct-29 15:24N 22°10' E 113°35'0 0.0
2014-Oct-29 14:30N 22°10' E 113°35'0 0.0
2014-Oct-29 13:30N 22°10' E 113°35'0 0.0
2014-Oct-29 12:29N 22°10' E 113°35'1415.1
2014-Oct-29 11:33N 22°22' E 113°42'1010.0
2014-Oct-29 10:33N 22°31' E 113°46'2323.0
2014-Oct-29 09:33N 22°12' E 113°34'1515.2
2014-Oct-29 08:34N 22°24' E 113°43'6 5.8
2014-Oct-29 07:32N 22°29' E 113°46'2121.2
2014-Oct-29 06:33N 22°12' E 113°34'1514.5
2014-Oct-29 05:33N 22°24' E 113°42'7 6.6
2014-Oct-29 04:32N 22°30' E 113°46'2222.9
2014-Oct-29 03:33N 22°10' E 113°35'1615.8
2014-Oct-29 02:33N 22°24' E 113°43'1210.5
2014-Oct-29 01:25N 22°35' E 113°48'2326.8
2014-Oct-29 00:34N 22°14' E 113°39'5 4.1
2014-Oct-28 23:14N 22°10' E 113°35'0 0.0
2014-Oct-28 22:14N 22°10' E 113°35'0 0.0
2014-Oct-28 21:26N 22°10' E 113°35'0 0.0
2014-Oct-28 20:31N 22°10' E 113°35'0 0.0
2014-Oct-28 19:32N 22°10' E 113°35'0 0.0
2014-Oct-28 18:32N 22°10' E 113°35'0 0.0
2014-Oct-28 17:32N 22°10' E 113°35'0 0.0
2014-Oct-28 16:32N 22°10' E 113°35'0 0.0
2014-Oct-28 15:32N 22°10' E 113°35'0 0.0
2014-Oct-28 14:31N 22°10' E 113°35'0 0.0
2014-Oct-28 13:32N 22°10' E 113°35'0 0.0
2014-Oct-28 12:26N 22°10' E 113°35'1719.4
2014-Oct-28 11:33N 22°21' E 113°48'1612.1
2014-Oct-28 10:14N 22°19' E 114°06'3 3.8
2014-Oct-28 09:31N 22°21' E 114°03'1010.6
2014-Oct-28 08:33N 22°25' E 113°53'2323.0
2014-Oct-28 07:33N 22°10' E 113°35'1515.4
2014-Oct-28 06:33N 22°21' E 113°47'1110.8
2014-Oct-28 05:33N 22°29' E 113°55'0 0.1
2014-Oct-28 04:33N 22°29' E 113°55'1817.4
2014-Oct-28 03:33N 22°17' E 114°09'1616.7
2014-Oct-28 02:33N 22°26' E 113°54'2 2.2
2014-Oct-28 01:29N 22°29' E 113°54'0 0.1
2014-Oct-28 00:33N 22°29' E 113°55'0 0.0
2014-Oct-27 23:33N 22°29' E 113°55'0 0.0
2014-Oct-27 22:33N 22°29' E 113°55'0 0.0
2014-Oct-27 21:33N 22°29' E 113°55'0 0.0
2014-Oct-27 20:33N 22°29' E 113°55'0 0.0
2014-Oct-27 19:33N 22°29' E 113°55'0 0.0
2014-Oct-27 18:33N 22°29' E 113°55'0 0.0
2014-Oct-27 17:33N 22°29' E 113°55'0 0.0
2014-Oct-27 16:33N 22°29' E 113°55'0 0.1
2014-Oct-27 15:33N 22°29' E 113°54'0 0.1
2014-Oct-27 14:33N 22°29' E 113°55'0 0.0
2014-Oct-27 13:33N 22°29' E 113°55'0 0.2
2014-Oct-27 11:34N 22°29' E 113°55'9 8.0
2014-Oct-27 10:28N 22°21' E 113°60'3 3.2
2014-Oct-27 09:31N 22°21' E 114°03'1111.2
2014-Oct-27 08:33N 22°24' E 113°52'2221.4
2014-Oct-27 07:33N 22°10' E 113°35'2221.8
2014-Oct-27 06:34N 22°24' E 113°52'1412.5
2014-Oct-27 05:27N 22°19' E 114°07'8 8.5
2014-Oct-27 04:33N 22°21' E 113°58'9 8.6
2014-Oct-27 03:33N 22°29' E 113°55'2424.4
2014-Oct-27 02:33N 22°11' E 113°37'7 6.6
2014-Oct-27 01:33N 22°14' E 113°43'1818.1
2014-Oct-27 00:34N 22°29' E 113°55'0 0.1
2014-Oct-26 23:20N 22°29' E 113°55'0 0.0
2014-Oct-26 22:32N 22°29' E 113°55'0 0.0
2014-Oct-26 21:32N 22°29' E 113°55'0 0.0
2014-Oct-26 20:32N 22°29' E 113°55'0 0.0
2014-Oct-26 19:32N 22°29' E 113°55'0 0.0
2014-Oct-26 18:26N 22°29' E 113°55'0 0.0
2014-Oct-26 17:32N 22°29' E 113°55'0 0.0
2014-Oct-26 16:31N 22°29' E 113°55'0 0.0
2014-Oct-26 15:32N 22°29' E 113°55'0 0.0
2014-Oct-26 14:32N 22°29' E 113°55'0 0.1
2014-Oct-26 13:33N 22°29' E 113°55'1817.2
2014-Oct-26 12:32N 22°17' E 114°09'1414.1
2014-Oct-26 11:32N 22°22' E 113°55'11 8.5
2014-Oct-26 10:16N 22°19' E 114°06'1 1.2
2014-Oct-26 09:33N 22°19' E 114°07'1414.0
2014-Oct-26 08:33N 22°27' E 113°54'2524.6
2014-Oct-26 07:33N 22°10' E 113°35'1817.8
2014-Oct-26 06:33N 22°21' E 113°50'5 5.2
2014-Oct-26 05:34N 22°25' E 113°53'2322.9
2014-Oct-26 04:33N 22°10' E 113°35'2120.5
2014-Oct-26 03:33N 22°23' E 113°52'1411.4
2014-Oct-26 02:19N 22°19' E 114°06'1111.4
2014-Oct-26 01:20N 22°23' E 113°55'6 7.3
2014-Oct-26 00:30N 22°29' E 113°55'0 0.0
2014-Oct-25 23:30N 22°29' E 113°55'0 0.0
2014-Oct-25 22:30N 22°29' E 113°55'0 0.0
2014-Oct-25 21:12N 22°29' E 113°55'0 0.1
2014-Oct-25 20:30N 22°29' E 113°54'0 0.0
2014-Oct-25 19:18N 22°29' E 113°55'0 0.0
2014-Oct-25 18:30N 22°29' E 113°55'0 0.0
2014-Oct-25 17:30N 22°29' E 113°55'0 0.1
2014-Oct-25 16:30N 22°29' E 113°54'0 0.0
2014-Oct-25 15:30N 22°29' E 113°54'0 0.1
2014-Oct-25 14:30N 22°29' E 113°55'0 0.1
2014-Oct-25 13:30N 22°29' E 113°55'1818.8
2014-Oct-25 12:33N 22°17' E 114°09'1413.9
2014-Oct-25 11:32N 22°22' E 113°55'11 8.0
2014-Oct-25 10:13N 22°19' E 114°06'1111.1
2014-Oct-25 09:12N 22°23' E 113°54'3 5.0
2014-Oct-25 08:31N 22°22' E 113°51'1919.9
2014-Oct-25 07:33N 22°10' E 113°35'2424.4
2014-Oct-25 06:33N 22°26' E 113°54'1414.3
2014-Oct-25 05:33N 22°15' E 113°45'3 3.0
2014-Oct-25 04:33N 22°13' E 113°42'1919.4
2014-Oct-25 03:33N 22°29' E 113°55'1717.4
2014-Oct-25 02:33N 22°17' E 114°09'1615.6
2014-Oct-25 01:33N 22°24' E 113°54'5 4.5
2014-Oct-25 00:31N 22°29' E 113°55'0 0.1
2014-Oct-24 23:31N 22°29' E 113°54'0 0.1
2014-Oct-24 22:31N 22°29' E 113°55'0 0.0
2014-Oct-24 21:32N 22°29' E 113°55'0 0.0
2014-Oct-24 20:31N 22°29' E 113°55'0 0.0
2014-Oct-24 19:31N 22°29' E 113°55'0 0.0
2014-Oct-24 18:31N 22°29' E 113°55'0 0.0
2014-Oct-24 17:25N 22°29' E 113°55'0 0.0
2014-Oct-24 16:31N 22°29' E 113°55'0 0.0
2014-Oct-24 15:31N 22°29' E 113°55'0 0.0
2014-Oct-24 14:31N 22°29' E 113°55'0 0.0
2014-Oct-24 13:33N 22°29' E 113°55'0 0.0
2014-Oct-24 11:33N 22°29' E 113°55'1410.3
2014-Oct-24 10:11N 22°19' E 114°06'0 0.0
2014-Oct-24 09:34N 22°19' E 114°06'1413.9
2014-Oct-24 08:33N 22°29' E 113°55'1717.1
2014-Oct-24 07:33N 22°18' E 114°09'1515.2
2014-Oct-24 06:33N 22°24' E 113°54'5 4.9
2014-Oct-24 05:33N 22°29' E 113°55'0 0.1
2014-Oct-24 04:33N 22°29' E 113°55'1716.7
2014-Oct-24 03:33N 22°18' E 114°08'1413.7
2014-Oct-24 02:33N 22°23' E 113°54'5 4.8
2014-Oct-24 01:27N 22°21' E 114°00'8 8.4
2014-Oct-24 00:33N 22°19' E 114°08'1614.9
2014-Oct-23 23:30N 22°29' E 113°55'0 0.0
2014-Oct-23 22:30N 22°29' E 113°55'0 0.0
2014-Oct-23 21:30N 22°29' E 113°55'0 0.0
2014-Oct-23 20:30N 22°29' E 113°55'0 0.0
2014-Oct-23 19:30N 22°29' E 113°55'0 0.0
2014-Oct-23 18:30N 22°29' E 113°55'0 0.0
2014-Oct-23 17:30N 22°29' E 113°55'0 0.0
2014-Oct-23 16:30N 22°29' E 113°55'0 0.0
2014-Oct-23 15:30N 22°29' E 113°55'0 0.0
2014-Oct-23 14:30N 22°29' E 113°55'7 5.2
2014-Oct-23 13:14N 22°22' E 113°55'7 9.8
2014-Oct-23 12:33N 22°29' E 113°55'1817.6
2014-Oct-23 11:33N 22°15' E 113°43'5 5.4
2014-Oct-23 10:34N 22°12' E 113°38'2322.7
2014-Oct-23 09:33N 22°29' E 113°55'1918.7
2014-Oct-23 08:34N 22°14' E 113°43'7 6.8
2014-Oct-23 07:34N 22°11' E 113°36'2525.0
2014-Oct-23 06:34N 22°29' E 113°55'3 2.9
2014-Oct-23 05:34N 22°26' E 113°54'2423.8
2014-Oct-23 04:34N 22°10' E 113°35'1717.2
2014-Oct-23 03:34N 22°21' E 113°49'9 8.3
2014-Oct-23 02:26N 22°29' E 113°55'0 0.0
2014-Oct-23 01:32N 22°29' E 113°55'0 0.0
2014-Oct-23 00:29N 22°29' E 113°55'0 0.0
2014-Oct-22 23:29N 22°29' E 113°55'0 0.0
2014-Oct-22 22:29N 22°29' E 113°55'0 0.0
2014-Oct-22 21:29N 22°29' E 113°55'0 0.0
2014-Oct-22 20:29N 22°29' E 113°55'0 0.0
2014-Oct-22 19:29N 22°29' E 113°55'0 0.0
2014-Oct-22 18:23N 22°29' E 113°55'0 0.0
2014-Oct-22 17:29N 22°29' E 113°55'0 0.0
2014-Oct-22 16:29N 22°29' E 113°55'0 0.0
2014-Oct-22 15:29N 22°29' E 113°55'0 0.0
2014-Oct-22 14:29N 22°29' E 113°55'0 0.1
2014-Oct-22 13:34N 22°29' E 113°55'  

Dump ship's entire track history